createdAt,value
2017-10-14T00:00:22.675Z,9.80
2017-10-14T00:02:50.110Z,9.80
2017-10-14T00:05:18.324Z,9.90
2017-10-14T00:07:45.769Z,9.90
2017-10-14T00:10:13.198Z,9.80
2017-10-14T00:12:41.408Z,9.90
2017-10-14T00:15:08.843Z,9.90
2017-10-14T00:17:36.283Z,9.90
2017-10-14T00:20:04.492Z,9.70
2017-10-14T00:22:31.931Z,9.70
2017-10-14T00:24:59.367Z,9.70
2017-10-14T00:27:27.580Z,9.70
2017-10-14T00:29:55.006Z,9.60
2017-10-14T00:32:23.231Z,9.70
2017-10-14T00:34:50.667Z,9.70
2017-10-14T00:37:18.100Z,9.60
2017-10-14T00:39:45.544Z,9.60
2017-10-14T00:42:13.747Z,9.70
2017-10-14T00:44:41.187Z,9.70
2017-10-14T00:47:08.627Z,9.70
2017-10-14T00:49:36.835Z,9.70
2017-10-14T00:52:04.272Z,9.70
2017-10-14T00:54:31.716Z,9.70
2017-10-14T00:56:59.918Z,9.70
2017-10-14T00:59:27.358Z,9.60
2017-10-14T01:01:54.792Z,9.70
2017-10-14T01:04:23.004Z,9.70
2017-10-14T01:06:50.435Z,9.70
2017-10-14T01:09:18.650Z,9.50
2017-10-14T01:11:46.089Z,9.50
2017-10-14T01:14:13.528Z,9.30
2017-10-14T01:16:40.959Z,9.20
2017-10-14T01:19:09.173Z,9.10
2017-10-14T01:21:36.606Z,9.00
2017-10-14T01:24:04.051Z,9.10
2017-10-14T01:26:32.259Z,9.30
2017-10-14T01:28:59.698Z,9.30
2017-10-14T01:31:27.139Z,9.30
2017-10-14T01:33:55.343Z,9.10
2017-10-14T01:36:22.783Z,9.10
2017-10-14T01:38:50.229Z,9.00
2017-10-14T01:41:18.430Z,8.70
2017-10-14T01:43:45.870Z,8.70
2017-10-14T01:46:13.329Z,8.70
2017-10-14T01:48:40.751Z,8.80
2017-10-14T01:51:08.187Z,8.90
2017-10-14T01:53:35.627Z,8.90
2017-10-14T01:56:03.069Z,8.90
2017-10-14T01:58:30.503Z,9.00
2017-10-14T02:00:57.947Z,9.10
2017-10-14T02:03:26.149Z,8.90
2017-10-14T02:05:53.595Z,8.90
2017-10-14T02:08:21.031Z,8.80
2017-10-14T02:10:49.247Z,8.70
2017-10-14T02:13:16.692Z,8.70
2017-10-14T02:15:44.131Z,8.80
2017-10-14T02:18:11.571Z,8.80
2017-10-14T02:20:39.780Z,8.90
2017-10-14T02:23:07.207Z,8.90
2017-10-14T02:25:35.419Z,8.80
2017-10-14T02:28:02.863Z,8.80
2017-10-14T02:30:30.303Z,8.80
2017-10-14T02:32:57.740Z,8.80
2017-10-14T02:35:25.947Z,8.90
2017-10-14T02:37:53.387Z,8.80
2017-10-14T02:40:20.831Z,8.90
2017-10-14T02:42:49.031Z,9.00
2017-10-14T02:45:16.471Z,9.00
2017-10-14T02:47:43.907Z,9.00
2017-10-14T02:50:12.116Z,8.80
2017-10-14T02:52:39.551Z,8.70
2017-10-14T02:55:07.784Z,8.80
2017-10-14T02:57:35.233Z,8.80
2017-10-14T03:00:02.673Z,8.90
2017-10-14T03:02:30.116Z,8.90
2017-10-14T03:04:57.559Z,8.90
2017-10-14T03:07:24.999Z,8.90
2017-10-14T03:09:53.199Z,8.90
2017-10-14T03:12:20.644Z,8.90
2017-10-14T03:14:48.075Z,8.90
2017-10-14T03:17:16.289Z,8.90
2017-10-14T03:19:43.719Z,8.90
2017-10-14T03:22:11.159Z,8.80
2017-10-14T03:24:39.373Z,8.90
2017-10-14T03:27:06.815Z,8.80
2017-10-14T03:29:34.242Z,8.90
2017-10-14T03:32:02.466Z,8.90
2017-10-14T03:34:29.891Z,8.90
2017-10-14T03:36:57.335Z,8.80
2017-10-14T03:39:25.547Z,8.80
2017-10-14T03:41:52.979Z,8.80
2017-10-14T03:44:20.416Z,8.80
2017-10-14T03:46:48.631Z,8.80
2017-10-14T03:49:16.068Z,8.70
2017-10-14T03:51:43.500Z,8.70
2017-10-14T03:54:11.712Z,8.70
2017-10-14T03:56:39.151Z,8.70
2017-10-14T03:59:06.591Z,8.70
2017-10-14T04:01:34.812Z,8.60
2017-10-14T04:04:02.253Z,8.60
2017-10-14T04:06:29.693Z,8.60
2017-10-14T04:08:57.126Z,8.60
2017-10-14T04:11:25.339Z,8.60
2017-10-14T04:13:52.784Z,8.60
2017-10-14T04:16:20.217Z,8.60
2017-10-14T04:18:48.428Z,8.40
2017-10-14T04:21:15.868Z,8.40
2017-10-14T04:23:43.307Z,8.40
2017-10-14T04:26:11.509Z,8.40
2017-10-14T04:28:38.952Z,8.30
2017-10-14T04:31:06.389Z,8.40
2017-10-14T04:33:34.601Z,8.40
2017-10-14T04:36:02.038Z,8.30
2017-10-14T04:38:29.483Z,8.30
2017-10-14T04:40:57.696Z,8.30
2017-10-14T04:43:25.139Z,8.30
2017-10-14T04:45:52.569Z,8.30
2017-10-14T04:48:20.787Z,8.40
2017-10-14T04:50:48.221Z,8.40
2017-10-14T04:53:15.664Z,8.50
2017-10-14T04:55:43.099Z,8.50
2017-10-14T04:58:11.379Z,8.50
2017-10-14T05:00:39.585Z,8.40
2017-10-14T05:03:07.039Z,8.40
2017-10-14T05:05:34.483Z,8.30
2017-10-14T05:08:01.911Z,8.30
2017-10-14T05:10:30.127Z,8.30
2017-10-14T05:12:57.556Z,8.30
2017-10-14T05:15:24.992Z,8.30
2017-10-14T05:17:52.435Z,8.30
2017-10-14T05:20:19.872Z,8.30
2017-10-14T05:22:47.316Z,8.30
2017-10-14T05:25:14.760Z,8.30
2017-10-14T05:27:42.187Z,8.30
2017-10-14T05:30:10.402Z,8.30
2017-10-14T05:32:37.843Z,8.30
2017-10-14T05:35:05.283Z,8.30
2017-10-14T05:37:32.719Z,8.30
2017-10-14T05:40:00.938Z,8.30
2017-10-14T05:42:28.367Z,8.30
2017-10-14T05:44:55.821Z,8.30
2017-10-14T05:47:24.023Z,8.30
2017-10-14T05:49:51.471Z,8.20
2017-10-14T05:52:18.912Z,8.30
2017-10-14T05:54:46.355Z,8.20
2017-10-14T05:57:14.555Z,8.30
2017-10-14T05:59:41.996Z,8.30
2017-10-14T06:02:09.439Z,8.20
2017-10-14T06:04:37.643Z,8.30
2017-10-14T06:07:05.080Z,8.20
2017-10-14T06:09:32.507Z,8.20
2017-10-14T06:11:59.943Z,8.20
2017-10-14T06:14:27.380Z,8.20
2017-10-14T06:16:55.589Z,8.20
2017-10-14T06:19:23.016Z,8.20
2017-10-14T06:21:50.459Z,8.20
2017-10-14T06:24:17.903Z,8.20
2017-10-14T06:26:45.347Z,8.20
2017-10-14T06:29:12.783Z,8.20
2017-10-14T06:31:40.989Z,8.30
2017-10-14T06:34:08.427Z,8.30
2017-10-14T06:36:35.875Z,8.30
2017-10-14T06:39:04.087Z,8.50
2017-10-14T06:41:31.537Z,8.40
2017-10-14T06:43:58.968Z,8.50
2017-10-14T06:46:26.426Z,8.60
2017-10-14T06:48:54.616Z,8.80
2017-10-14T06:51:22.055Z,8.80
2017-10-14T06:53:49.493Z,8.80
2017-10-14T06:56:17.715Z,9.00
2017-10-14T06:58:45.156Z,9.00
2017-10-14T07:01:12.604Z,9.00
2017-10-14T07:03:40.039Z,9.10
2017-10-14T07:06:08.242Z,9.30
2017-10-14T07:08:35.670Z,9.30
2017-10-14T07:11:03.895Z,9.40
2017-10-14T07:13:31.339Z,9.40
2017-10-14T07:15:58.787Z,9.60
2017-10-14T07:18:26.227Z,9.80
2017-10-14T07:20:53.677Z,10.00
2017-10-14T07:23:21.128Z,10.40
2017-10-14T07:25:49.334Z,11.10
2017-10-14T07:28:16.820Z,11.10
2017-10-14T07:30:44.259Z,11.50
2017-10-14T07:33:11.712Z,12.00
2017-10-14T07:35:39.155Z,12.40
2017-10-14T07:38:06.607Z,12.80
2017-10-14T07:40:34.063Z,13.30
2017-10-14T07:43:01.548Z,13.70
2017-10-14T07:45:28.991Z,14.20
2017-10-14T07:47:56.450Z,14.50
2017-10-14T07:50:23.887Z,14.90
2017-10-14T07:52:51.339Z,15.30
2017-10-14T07:55:18.775Z,16.00
2017-10-14T07:57:46.999Z,17.00
2017-10-14T08:00:14.447Z,17.00
2017-10-14T08:02:41.904Z,17.50
2017-10-14T08:05:09.344Z,18.20
2017-10-14T08:07:36.802Z,18.10
2017-10-14T08:10:04.257Z,18.90
2017-10-14T08:12:31.711Z,18.90
2017-10-14T08:14:59.150Z,19.40
2017-10-14T08:17:26.616Z,19.90
2017-10-14T08:19:54.050Z,19.30
2017-10-14T08:22:22.266Z,21.00
2017-10-14T08:24:49.711Z,21.00
2017-10-14T08:27:17.157Z,20.80
2017-10-14T08:29:44.621Z,21.30
2017-10-14T08:32:12.178Z,22.10
2017-10-14T08:34:39.640Z,21.70
2017-10-14T08:37:07.092Z,22.20
2017-10-14T08:39:34.547Z,21.20
2017-10-14T08:42:01.997Z,22.20
2017-10-14T08:44:29.442Z,23.00
2017-10-14T08:46:56.882Z,23.70
2017-10-14T08:49:25.112Z,22.50
2017-10-14T08:51:52.552Z,22.40
2017-10-14T08:54:19.999Z,22.20
2017-10-14T08:56:47.443Z,22.90
2017-10-14T08:59:14.893Z,23.20
2017-10-14T09:01:42.330Z,23.00
2017-10-14T09:04:10.546Z,21.60
2017-10-14T09:06:37.996Z,21.60
2017-10-14T09:09:05.463Z,21.20
2017-10-14T09:11:32.914Z,20.80
2017-10-14T09:14:00.374Z,20.40
2017-10-14T09:16:27.808Z,20.10
2017-10-14T09:18:55.250Z,19.10
2017-10-14T09:21:23.471Z,18.80
2017-10-14T09:23:50.924Z,18.70
2017-10-14T09:26:18.377Z,18.70
2017-10-14T09:28:45.820Z,18.90
2017-10-14T09:31:13.276Z,19.30
2017-10-14T09:33:40.732Z,20.00
2017-10-14T09:36:08.194Z,20.80
2017-10-14T09:38:35.637Z,21.40
2017-10-14T09:41:03.079Z,22.00
2017-10-14T09:43:30.527Z,22.20
2017-10-14T09:45:58.743Z,22.80
2017-10-14T09:48:26.187Z,22.70
2017-10-14T09:50:53.642Z,24.20
2017-10-14T09:53:21.092Z,24.40
2017-10-14T09:55:48.536Z,25.40
2017-10-14T09:58:15.980Z,26.50
2017-10-14T10:00:44.210Z,26.70
2017-10-14T10:03:11.653Z,26.70
2017-10-14T10:05:39.094Z,27.50
2017-10-14T10:08:06.540Z,28.10
2017-10-14T10:10:34.002Z,27.60
2017-10-14T10:13:01.444Z,28.30
2017-10-14T10:15:28.892Z,28.50
2017-10-14T10:17:57.104Z,27.70
2017-10-14T10:20:24.557Z,27.70
2017-10-14T10:22:52.009Z,27.20
2017-10-14T10:25:19.463Z,27.90
2017-10-14T10:27:46.919Z,28.30
2017-10-14T10:30:14.391Z,26.40
2017-10-14T10:32:41.831Z,27.70
2017-10-14T10:35:09.269Z,28.80
2017-10-14T10:37:36.711Z,29.50
2017-10-14T10:40:04.920Z,27.70
2017-10-14T10:42:32.372Z,27.70
2017-10-14T10:44:59.828Z,28.50
2017-10-14T10:47:27.284Z,29.40
2017-10-14T10:49:54.739Z,29.80
2017-10-14T10:52:22.198Z,27.30
2017-10-14T10:54:49.636Z,23.70
2017-10-14T10:57:17.084Z,25.60
2017-10-14T10:59:44.534Z,27.80
2017-10-14T11:02:12.759Z,29.80
2017-10-14T11:04:40.196Z,29.80
2017-10-14T11:07:07.650Z,27.80
2017-10-14T11:09:35.092Z,27.20
2017-10-14T11:12:02.539Z,28.10
2017-10-14T11:14:29.979Z,29.40
2017-10-14T11:16:58.196Z,30.90
2017-10-14T11:19:25.647Z,30.80
2017-10-14T11:21:53.115Z,31.30
2017-10-14T11:24:20.558Z,31.40
2017-10-14T11:26:48.002Z,29.40
2017-10-14T11:29:15.450Z,29.90
2017-10-14T11:31:42.889Z,30.00
2017-10-14T11:34:11.103Z,30.10
2017-10-14T11:36:38.544Z,30.10
2017-10-14T11:39:05.989Z,27.50
2017-10-14T11:41:34.191Z,28.30
2017-10-14T11:44:01.679Z,28.20
2017-10-14T11:46:29.127Z,28.20
2017-10-14T11:48:56.575Z,28.90
2017-10-14T11:51:24.027Z,29.30
2017-10-14T11:53:51.475Z,29.20
2017-10-14T11:56:18.928Z,27.90
2017-10-14T11:58:46.383Z,28.50
2017-10-14T12:01:13.836Z,27.90
2017-10-14T12:03:41.291Z,28.70
2017-10-14T12:06:08.735Z,26.90
2017-10-14T12:08:36.192Z,25.90
2017-10-14T12:11:03.631Z,27.30
2017-10-14T12:13:31.843Z,27.80
2017-10-14T12:15:59.296Z,27.70
2017-10-14T12:18:26.743Z,25.90
2017-10-14T12:20:54.187Z,27.10
2017-10-14T12:23:21.638Z,25.70
2017-10-14T12:25:49.075Z,26.70
2017-10-14T12:28:17.317Z,26.40
2017-10-14T12:30:44.748Z,26.40
2017-10-14T12:33:12.200Z,27.10
2017-10-14T12:35:39.655Z,25.20
2017-10-14T12:38:07.118Z,23.60
2017-10-14T12:40:34.569Z,24.80
2017-10-14T12:43:02.023Z,25.90
2017-10-14T12:45:29.478Z,26.10
2017-10-14T12:47:56.935Z,25.80
2017-10-14T12:50:24.391Z,26.50
2017-10-14T12:52:51.842Z,27.10
2017-10-14T12:55:19.299Z,27.60
2017-10-14T12:57:46.740Z,27.70
2017-10-14T13:00:14.187Z,27.60
2017-10-14T13:02:42.404Z,27.50
2017-10-14T13:05:09.860Z,27.50
2017-10-14T13:07:37.311Z,27.40
2017-10-14T13:10:04.764Z,27.20
2017-10-14T13:12:32.215Z,27.30
2017-10-14T13:14:59.674Z,26.90
2017-10-14T13:17:27.125Z,27.10
2017-10-14T13:19:54.593Z,26.80
2017-10-14T13:22:22.043Z,26.70
2017-10-14T13:24:49.489Z,26.60
2017-10-14T13:27:16.927Z,26.40
2017-10-14T13:29:44.367Z,26.10
2017-10-14T13:32:12.591Z,25.80
2017-10-14T13:34:40.040Z,25.80
2017-10-14T13:37:07.496Z,24.70
2017-10-14T13:39:34.948Z,24.80
2017-10-14T13:42:02.405Z,24.60
2017-10-14T13:44:29.865Z,24.90
2017-10-14T13:46:57.320Z,25.30
2017-10-14T13:49:24.759Z,24.70
2017-10-14T13:51:52.240Z,24.80
2017-10-14T13:54:19.672Z,24.70
2017-10-14T13:56:47.127Z,24.60
2017-10-14T13:59:14.579Z,24.50
2017-10-14T14:01:42.030Z,24.50
2017-10-14T14:04:10.257Z,24.60
2017-10-14T14:06:37.720Z,24.50
2017-10-14T14:09:05.164Z,24.60
2017-10-14T14:11:32.608Z,24.30
2017-10-14T14:14:00.056Z,24.20
2017-10-14T14:16:27.516Z,24.20
2017-10-14T14:18:54.963Z,23.70
2017-10-14T14:21:22.423Z,23.80
2017-10-14T14:23:49.863Z,23.50
2017-10-14T14:26:17.327Z,23.50
2017-10-14T14:28:44.768Z,23.40
2017-10-14T14:31:12.976Z,23.30
2017-10-14T14:33:40.419Z,23.30
2017-10-14T14:36:07.876Z,23.20
2017-10-14T14:38:35.332Z,23.10
2017-10-14T14:41:02.784Z,23.10
2017-10-14T14:43:30.244Z,23.10
2017-10-14T14:45:57.699Z,23.00
2017-10-14T14:48:25.156Z,22.90
2017-10-14T14:50:52.613Z,22.80
2017-10-14T14:53:20.068Z,22.80
2017-10-14T14:55:47.523Z,22.80
2017-10-14T14:58:14.979Z,22.70
2017-10-14T15:00:42.438Z,22.70
2017-10-14T15:03:09.897Z,22.70
2017-10-14T15:05:37.350Z,22.60
2017-10-14T15:08:04.805Z,22.50
2017-10-14T15:10:32.263Z,22.50
2017-10-14T15:12:59.740Z,22.50
2017-10-14T15:15:27.195Z,22.40
2017-10-14T15:17:54.643Z,22.30
2017-10-14T15:20:22.088Z,22.30
2017-10-14T15:22:49.542Z,22.30
2017-10-14T15:25:17.003Z,22.20
2017-10-14T15:27:44.458Z,22.20
2017-10-14T15:30:11.915Z,22.20
2017-10-14T15:32:39.369Z,22.10
2017-10-14T15:35:06.835Z,22.00
2017-10-14T15:37:34.288Z,21.90
2017-10-14T15:40:01.749Z,21.80
2017-10-14T15:42:29.208Z,21.50
2017-10-14T15:44:56.667Z,21.50
2017-10-14T15:47:24.119Z,21.30
2017-10-14T15:49:51.659Z,21.30
2017-10-14T15:52:19.110Z,21.20
2017-10-14T15:54:46.554Z,20.90
2017-10-14T15:57:14.004Z,20.90
2017-10-14T15:59:42.220Z,20.90
2017-10-14T16:02:09.676Z,20.80
2017-10-14T16:04:37.142Z,20.70
2017-10-14T16:07:05.347Z,20.40
2017-10-14T16:09:33.563Z,19.80
2017-10-14T16:12:01.023Z,19.70
2017-10-14T16:14:28.479Z,19.50
2017-10-14T16:16:55.932Z,19.10
2017-10-14T16:19:23.417Z,19.10
2017-10-14T16:21:50.868Z,19.20
2017-10-14T16:24:18.324Z,19.20
2017-10-14T16:26:45.779Z,19.00
2017-10-14T16:29:13.235Z,18.80
2017-10-14T16:31:40.693Z,18.60
2017-10-14T16:34:08.903Z,18.40
2017-10-14T16:36:37.119Z,17.90
2017-10-14T16:39:04.576Z,17.90
2017-10-14T16:41:32.031Z,17.90
2017-10-14T16:43:59.487Z,18.00
2017-10-14T16:46:26.944Z,17.90
2017-10-14T16:48:54.401Z,17.70
2017-10-14T16:51:21.862Z,17.70
2017-10-14T16:53:49.311Z,17.50
2017-10-14T16:56:16.768Z,17.30
2017-10-14T16:58:44.238Z,17.20
2017-10-14T17:01:11.693Z,16.80
2017-10-14T17:03:39.135Z,16.70
2017-10-14T17:06:06.696Z,16.60
2017-10-14T17:08:34.154Z,16.50
2017-10-14T17:11:01.667Z,16.60
2017-10-14T17:13:29.108Z,16.60
2017-10-14T17:15:56.557Z,16.60
2017-10-14T17:18:24.009Z,16.60
2017-10-14T17:20:51.460Z,16.40
2017-10-14T17:23:18.911Z,16.40
2017-10-14T17:25:46.359Z,16.30
2017-10-14T17:28:13.813Z,16.30
2017-10-14T17:30:41.273Z,16.30
2017-10-14T17:33:08.727Z,16.10
2017-10-14T17:35:36.180Z,16.10
2017-10-14T17:38:03.631Z,16.00
2017-10-14T17:40:31.627Z,15.90
2017-10-14T17:42:59.074Z,15.60
2017-10-14T17:45:26.527Z,15.60
2017-10-14T17:47:53.989Z,15.70
2017-10-14T17:50:21.444Z,15.70
2017-10-14T17:52:48.919Z,15.60
2017-10-14T17:55:16.402Z,15.60
2017-10-14T17:57:44.640Z,15.40
2017-10-14T18:00:12.115Z,15.30
2017-10-14T18:02:40.355Z,14.90
2017-10-14T18:05:07.821Z,14.90
2017-10-14T18:07:35.273Z,14.80
2017-10-14T18:10:02.730Z,14.90
2017-10-14T18:12:30.199Z,14.80
2017-10-14T18:14:57.668Z,14.90
2017-10-14T18:17:25.128Z,14.90
2017-10-14T18:19:52.571Z,14.90
2017-10-14T18:22:20.024Z,14.90
2017-10-14T18:24:47.480Z,14.80
2017-10-14T18:27:14.936Z,14.60
2017-10-14T18:29:42.395Z,14.60
2017-10-14T18:32:09.865Z,14.50
2017-10-14T18:34:37.304Z,14.50
2017-10-14T18:37:04.823Z,14.50
2017-10-14T18:39:32.280Z,14.50
2017-10-14T18:41:59.736Z,14.40
2017-10-14T18:44:27.190Z,14.30
2017-10-14T18:46:54.647Z,14.30
2017-10-14T18:49:22.146Z,14.30
2017-10-14T18:51:49.595Z,14.30
2017-10-14T18:54:17.071Z,14.30
2017-10-14T18:56:44.525Z,14.20
2017-10-14T18:59:11.967Z,14.20
2017-10-14T19:01:39.424Z,14.10
2017-10-14T19:04:06.879Z,14.10
2017-10-14T19:06:34.333Z,14.10
2017-10-14T19:09:01.812Z,13.80
2017-10-14T19:11:30.039Z,13.40
2017-10-14T19:13:57.487Z,13.40
2017-10-14T19:16:24.944Z,13.50
2017-10-14T19:18:52.398Z,13.60
2017-10-14T19:21:19.839Z,13.60
2017-10-14T19:23:47.388Z,13.40
2017-10-14T19:26:15.590Z,13.50
2017-10-14T19:28:43.040Z,13.50
2017-10-14T19:31:10.496Z,13.60
2017-10-14T19:33:37.950Z,13.60
2017-10-14T19:36:05.379Z,13.60
2017-10-14T19:38:33.595Z,13.50
2017-10-14T19:41:01.040Z,13.50
2017-10-14T19:43:28.495Z,13.50
2017-10-14T19:45:55.945Z,13.50
2017-10-14T19:48:24.099Z,13.50
2017-10-14T19:50:51.541Z,13.50
2017-10-14T19:53:19.767Z,13.50
2017-10-14T19:55:47.223Z,13.40
2017-10-14T19:58:14.683Z,13.50
2017-10-14T20:00:42.136Z,13.40
2017-10-14T20:03:10.424Z,13.10
2017-10-14T20:05:37.864Z,13.00
2017-10-14T20:08:05.316Z,13.10
2017-10-14T20:10:32.771Z,13.00
2017-10-14T20:13:00.224Z,13.00
2017-10-14T20:15:27.678Z,13.00
2017-10-14T20:17:55.122Z,13.00
2017-10-14T20:20:22.592Z,13.10
2017-10-14T20:22:50.046Z,13.00
2017-10-14T20:25:17.573Z,13.00
2017-10-14T20:27:45.804Z,12.70
2017-10-14T20:30:13.273Z,12.70
2017-10-14T20:32:40.728Z,12.60
2017-10-14T20:35:08.187Z,12.50
2017-10-14T20:37:35.656Z,12.50
2017-10-14T20:40:03.095Z,12.60
2017-10-14T20:42:30.544Z,12.60
2017-10-14T20:44:57.987Z,12.60
2017-10-14T20:47:25.449Z,12.60
2017-10-14T20:49:52.899Z,12.60
2017-10-14T20:52:20.353Z,12.60
2017-10-14T20:54:47.798Z,12.60
2017-10-14T20:57:15.252Z,12.60
2017-10-14T20:59:42.714Z,12.60
2017-10-14T21:02:10.163Z,12.70
2017-10-14T21:04:37.624Z,12.60
2017-10-14T21:07:05.081Z,12.50
2017-10-14T21:09:32.536Z,12.40
2017-10-14T21:11:59.973Z,12.30
2017-10-14T21:14:27.410Z,12.20
2017-10-14T21:16:55.637Z,12.20
2017-10-14T21:19:23.081Z,12.20
2017-10-14T21:21:50.531Z,12.30
2017-10-14T21:24:18.003Z,12.30
2017-10-14T21:26:45.464Z,12.30
2017-10-14T21:29:12.908Z,12.30
2017-10-14T21:31:40.355Z,12.20
2017-10-14T21:34:07.804Z,12.20
2017-10-14T21:36:35.261Z,12.20
2017-10-14T21:39:02.695Z,12.10
2017-10-14T21:41:31.100Z,11.90
2017-10-14T21:43:58.531Z,11.90
2017-10-14T21:46:26.753Z,11.90
2017-10-14T21:48:54.199Z,11.90
2017-10-14T21:51:21.644Z,11.90
2017-10-14T21:53:49.100Z,11.90
2017-10-14T21:56:16.557Z,12.00
2017-10-14T21:58:43.993Z,12.00
2017-10-14T22:01:11.449Z,12.00
2017-10-14T22:03:38.892Z,11.90
2017-10-14T22:06:07.112Z,11.90
2017-10-14T22:08:34.553Z,11.90
2017-10-14T22:11:02.023Z,11.70
2017-10-14T22:13:29.464Z,11.50
2017-10-14T22:15:56.906Z,11.50
2017-10-14T22:18:24.356Z,11.50
2017-10-14T22:20:51.799Z,11.60
2017-10-14T22:23:19.250Z,11.50
2017-10-14T22:25:47.464Z,11.40
2017-10-14T22:28:14.915Z,11.50
2017-10-14T22:30:42.356Z,11.40
2017-10-14T22:33:09.799Z,11.40
2017-10-14T22:35:38.020Z,11.30
2017-10-14T22:38:05.477Z,11.30
2017-10-14T22:40:32.916Z,11.30
2017-10-14T22:43:00.372Z,11.40
2017-10-14T22:45:27.816Z,11.40
2017-10-14T22:47:55.277Z,11.40
2017-10-14T22:50:22.727Z,11.40
2017-10-14T22:52:50.176Z,11.30
2017-10-14T22:55:17.623Z,11.30
2017-10-14T22:57:45.835Z,11.40
2017-10-14T23:00:13.289Z,11.40
2017-10-14T23:02:40.736Z,11.40
2017-10-14T23:05:08.187Z,11.40
2017-10-14T23:07:35.622Z,11.30
2017-10-14T23:10:03.838Z,11.30
2017-10-14T23:12:31.289Z,11.30
2017-10-14T23:14:58.745Z,11.30
2017-10-14T23:17:26.193Z,11.30
2017-10-14T23:19:53.635Z,11.20
2017-10-14T23:22:21.080Z,11.20
2017-10-14T23:24:49.291Z,11.30
2017-10-14T23:27:16.739Z,11.20
2017-10-14T23:29:44.190Z,11.30
2017-10-14T23:32:11.663Z,11.30
2017-10-14T23:34:39.099Z,11.30
2017-10-14T23:37:06.543Z,11.20
2017-10-14T23:39:33.992Z,11.20
2017-10-14T23:42:01.435Z,11.10
2017-10-14T23:44:29.655Z,10.90
2017-10-14T23:46:57.098Z,10.90
2017-10-14T23:49:24.555Z,10.90
2017-10-14T23:51:52.018Z,10.90
2017-10-14T23:54:19.456Z,10.90
2017-10-14T23:56:46.903Z,10.90
2017-10-14T23:59:14.340Z,11.00
